Time,TemperatureF,DewpointF,PressureIn,WindDirection,WindDirectionDegrees,WindSpeedMPH,WindSpeedGustMPH,Humidity,HourlyPrecipIn,Conditions,Clouds,dailyrainin,SoftwareType,DateUTC
2013-02-26 00:00:00,42.6,30.2,30.14,SE,132,0.0,1.0,61,0.00,,,0.00,meteohub,2013-02-26 05:00:00,
2013-02-26 00:05:00,42.1,28.8,30.14,SE,133,0.0,1.0,59,0.00,,,0.00,meteohub,2013-02-26 05:05:00,
2013-02-26 00:10:00,41.5,30.2,30.14,SE,133,0.0,1.0,64,0.00,,,0.00,meteohub,2013-02-26 05:10:00,
2013-02-26 00:15:00,42.3,29.8,30.14,SE,132,0.0,1.0,61,0.00,,,0.00,meteohub,2013-02-26 05:15:00,
2013-02-26 00:21:00,42.4,29.1,30.14,SE,133,0.0,1.0,59,0.00,,,0.00,meteohub,2013-02-26 05:21:00,
2013-02-26 00:26:00,43.0,31.6,30.14,SE,138,0.0,1.0,64,0.00,,,0.00,meteohub,2013-02-26 05:26:00,
2013-02-26 00:31:00,43.9,31.6,30.14,SE,138,0.0,1.0,62,0.00,,,0.00,meteohub,2013-02-26 05:31:00,
2013-02-26 00:36:00,41.2,27.9,30.14,ENE,70,0.0,1.0,59,0.00,,,0.00,meteohub,2013-02-26 05:36:00,
2013-02-26 00:41:00,39.4,26.6,30.14,ENE,70,0.0,1.0,60,0.00,,,0.00,meteohub,2013-02-26 05:41:00,
2013-02-26 00:46:00,38.8,29.1,30.14,ENE,70,0.0,1.0,68,0.00,,,0.00,meteohub,2013-02-26 05:46:00,
2013-02-26 00:51:00,40.5,30.0,30.14,ENE,70,0.0,0.0,66,0.00,,,0.00,meteohub,2013-02-26 05:51:00,
2013-02-26 00:56:00,41.4,30.6,30.14,East,95,0.0,1.0,65,0.00,,,0.00,meteohub,2013-02-26 05:56:00,
2013-02-26 01:01:00,39.9,28.4,30.14,ENE,58,0.0,1.0,63,0.00,,,0.00,meteohub,2013-02-26 06:01:00,
2013-02-26 01:06:00,39.4,28.9,30.15,ENE,58,0.0,1.0,66,0.00,,,0.00,meteohub,2013-02-26 06:06:00,
2013-02-26 01:11:00,38.5,26.2,30.15,ENE,58,0.0,1.0,61,0.00,,,0.00,meteohub,2013-02-26 06:11:00,
2013-02-26 01:16:00,38.5,28.8,30.15,SE,131,0.0,1.0,68,0.00,,,0.00,meteohub,2013-02-26 06:16:00,
2013-02-26 01:21:00,37.8,26.2,30.15,SE,131,0.0,1.0,63,0.00,,,0.00,meteohub,2013-02-26 06:21:00,
2013-02-26 01:26:00,36.3,25.7,30.15,SE,131,0.0,1.0,65,0.00,,,0.00,meteohub,2013-02-26 06:26:00,
2013-02-26 01:31:00,35.8,25.9,30.15,SE,131,0.0,1.0,67,0.00,,,0.00,meteohub,2013-02-26 06:31:00,
2013-02-26 01:36:00,35.4,25.9,30.15,NE,54,1.0,1.0,68,0.00,,,0.00,meteohub,2013-02-26 06:36:00,
2013-02-26 01:41:00,35.2,26.1,30.16,NE,51,0.0,1.0,69,0.00,,,0.00,meteohub,2013-02-26 06:41:00,
2013-02-26 01:46:00,36.0,27.1,30.16,SE,129,0.0,1.0,70,0.00,,,0.00,meteohub,2013-02-26 06:46:00,
2013-02-26 01:51:00,36.7,27.1,30.16,East,83,0.0,1.0,68,0.00,,,0.00,meteohub,2013-02-26 06:51:00,
2013-02-26 01:56:00,35.8,25.9,30.16,NNE,32,1.0,2.0,67,0.00,,,0.00,meteohub,2013-02-26 06:56:00,
2013-02-26 02:01:00,35.1,25.5,30.17,NE,53,1.0,2.0,68,0.00,,,0.00,meteohub,2013-02-26 07:01:00,
2013-02-26 02:06:00,34.7,25.5,30.16,ENE,57,0.0,2.0,69,0.00,,,0.00,meteohub,2013-02-26 07:06:00,
2013-02-26 02:11:00,34.5,25.7,30.16,NE,35,0.0,2.0,70,0.00,,,0.00,meteohub,2013-02-26 07:11:00,
2013-02-26 02:16:00,34.5,25.7,30.16,NE,36,0.0,2.0,70,0.00,,,0.00,meteohub,2013-02-26 07:16:00,
2013-02-26 02:21:00,34.3,25.5,30.16,NE,49,1.0,2.0,70,0.00,,,0.00,meteohub,2013-02-26 07:21:00,
2013-02-26 02:26:00,34.3,25.5,30.16,NNE,30,0.0,2.0,70,0.00,,,0.00,meteohub,2013-02-26 07:26:00,
2013-02-26 02:31:00,34.5,25.7,30.15,ENE,75,0.0,2.0,70,0.00,,,0.00,meteohub,2013-02-26 07:31:00,
2013-02-26 02:36:00,34.5,26.1,30.14,NE,43,2.0,2.0,71,0.00,,,0.00,meteohub,2013-02-26 07:36:00,
2013-02-26 02:41:00,34.5,26.1,30.14,NNE,33,1.0,3.0,71,0.00,,,0.00,meteohub,2013-02-26 07:41:00,
2013-02-26 02:46:00,34.3,25.9,30.13,NE,35,2.0,3.0,71,0.00,,,0.00,meteohub,2013-02-26 07:46:00,
2013-02-26 02:51:00,34.2,25.7,30.13,ENE,68,1.0,3.0,71,0.00,,,0.00,meteohub,2013-02-26 07:51:00,
2013-02-26 02:57:00,34.2,25.7,30.14,NNE,23,1.0,3.0,71,0.00,,,0.00,meteohub,2013-02-26 07:57:00,
2013-02-26 03:02:00,34.0,25.5,30.14,NE,49,0.0,3.0,71,0.00,,,0.00,meteohub,2013-02-26 08:02:00,
2013-02-26 03:07:00,34.0,25.5,30.15,NE,50,0.0,2.0,71,0.00,,,0.00,meteohub,2013-02-26 08:07:00,
2013-02-26 03:12:00,34.2,26.4,30.15,NE,52,0.0,2.0,73,0.00,,,0.00,meteohub,2013-02-26 08:12:00,
2013-02-26 03:17:00,34.2,25.7,30.14,NE,53,0.0,1.0,71,0.00,,,0.00,meteohub,2013-02-26 08:17:00,
2013-02-26 03:22:00,34.0,25.5,30.14,NE,52,0.0,1.0,71,0.00,,,0.00,meteohub,2013-02-26 08:22:00,
2013-02-26 03:27:00,34.0,25.9,30.14,NE,52,0.0,1.0,72,0.00,,,0.00,meteohub,2013-02-26 08:27:00,
2013-02-26 03:32:00,34.3,26.2,30.13,NE,53,0.0,1.0,72,0.00,,,0.00,meteohub,2013-02-26 08:32:00,
2013-02-26 03:37:00,34.0,25.9,30.12,NE,53,0.0,1.0,72,0.00,,,0.00,meteohub,2013-02-26 08:37:00,
2013-02-26 03:42:00,34.3,27.0,30.13,NE,53,0.0,1.0,74,0.00,,,0.00,meteohub,2013-02-26 08:42:00,
2013-02-26 03:47:00,34.0,25.9,30.13,ENE,59,1.0,1.0,72,0.00,,,0.00,meteohub,2013-02-26 08:47:00,
2013-02-26 03:52:00,34.0,25.9,30.12,NE,53,0.0,2.0,72,0.00,,,0.00,meteohub,2013-02-26 08:52:00,
2013-02-26 03:57:00,33.6,25.5,30.12,NNE,30,0.0,2.0,72,0.00,,,0.00,meteohub,2013-02-26 08:57:00,
2013-02-26 04:02:00,33.8,26.1,30.12,NNE,30,0.0,2.0,73,0.00,,,0.00,meteohub,2013-02-26 09:02:00,
2013-02-26 04:07:00,34.0,27.0,30.13,NNE,30,0.0,1.0,75,0.00,,,0.00,meteohub,2013-02-26 09:07:00,
2013-02-26 04:12:00,34.3,27.3,30.13,NNE,32,0.0,1.0,75,0.00,,,0.00,meteohub,2013-02-26 09:12:00,
2013-02-26 04:17:00,34.3,26.2,30.12,NNE,22,0.0,1.0,72,0.00,,,0.00,meteohub,2013-02-26 09:17:00,
2013-02-26 04:22:00,34.0,25.9,30.12,NE,35,0.0,1.0,72,0.00,,,0.00,meteohub,2013-02-26 09:22:00,
2013-02-26 04:27:00,33.6,25.5,30.11,ENE,69,2.0,2.0,72,0.00,,,0.00,meteohub,2013-02-26 09:27:00,
2013-02-26 04:32:00,33.6,25.9,30.10,NE,52,0.0,4.0,73,0.00,,,0.00,meteohub,2013-02-26 09:32:00,
2013-02-26 04:37:00,33.6,25.9,30.10,North,4,0.0,4.0,73,0.00,,,0.00,meteohub,2013-02-26 09:37:00,
2013-02-26 04:42:00,33.6,25.9,30.11,NNE,23,2.0,4.0,73,0.00,,,0.00,meteohub,2013-02-26 09:42:00,
2013-02-26 04:47:00,33.4,25.7,30.11,NE,34,0.0,4.0,73,0.00,,,0.00,meteohub,2013-02-26 09:47:00,
2013-02-26 04:52:00,33.6,26.2,30.11,NE,42,1.0,4.0,74,0.00,,,0.00,meteohub,2013-02-26 09:52:00,
2013-02-26 04:57:00,36.0,29.5,30.11,NE,43,0.0,3.0,77,0.00,,,0.00,meteohub,2013-02-26 09:57:00,
2013-02-26 05:02:00,35.2,26.4,30.11,NE,44,0.0,1.0,70,0.00,,,0.00,meteohub,2013-02-26 10:02:00,
2013-02-26 05:07:00,34.3,25.9,30.12,NE,40,0.0,1.0,71,0.00,,,0.00,meteohub,2013-02-26 10:07:00,
2013-02-26 05:12:00,34.0,25.9,30.12,ENE,65,1.0,1.0,72,0.00,,,0.00,meteohub,2013-02-26 10:12:00,
2013-02-26 05:17:00,34.0,27.0,30.13,ENE,72,0.0,1.0,75,0.00,,,0.00,meteohub,2013-02-26 10:17:00,
2013-02-26 05:22:00,36.0,29.1,30.13,SE,136,0.0,1.0,76,0.00,,,0.00,meteohub,2013-02-26 10:22:00,
2013-02-26 05:27:00,38.3,31.1,30.13,SE,136,0.0,2.0,75,0.00,,,0.00,meteohub,2013-02-26 10:27:00,
2013-02-26 05:32:00,38.1,29.5,30.13,SE,136,0.0,2.0,71,0.00,,,0.00,meteohub,2013-02-26 10:32:00,
2013-02-26 05:37:00,38.1,28.6,30.13,SE,137,0.0,1.0,68,0.00,,,0.00,meteohub,2013-02-26 10:37:00,
2013-02-26 05:42:00,36.0,26.8,30.13,East,89,0.0,2.0,69,0.00,,,0.00,meteohub,2013-02-26 10:42:00,
2013-02-26 05:47:00,36.0,29.1,30.13,ESE,103,0.0,2.0,76,0.00,,,0.00,meteohub,2013-02-26 10:47:00,
2013-02-26 05:52:00,36.3,28.6,30.13,East,86,0.0,2.0,73,0.00,,,0.00,meteohub,2013-02-26 10:52:00,
2013-02-26 05:57:00,36.9,28.4,30.13,NNE,32,0.0,1.0,71,0.00,,,0.00,meteohub,2013-02-26 10:57:00,
2013-02-26 06:02:00,35.1,27.3,30.13,NE,54,0.0,2.0,73,0.00,,,0.00,meteohub,2013-02-26 11:02:00,
2013-02-26 06:07:00,34.5,27.5,30.13,North,4,2.0,2.0,75,0.00,,,0.00,meteohub,2013-02-26 11:07:00,
2013-02-26 06:12:00,34.2,27.3,30.13,NE,42,0.0,3.0,76,0.00,,,0.00,meteohub,2013-02-26 11:12:00,
2013-02-26 06:17:00,34.0,27.1,30.13,NE,56,1.0,3.0,76,0.00,,,0.00,meteohub,2013-02-26 11:17:00,
2013-02-26 06:22:00,34.0,27.5,30.13,ENE,65,1.0,3.0,77,0.00,,,0.00,meteohub,2013-02-26 11:22:00,
2013-02-26 06:27:00,34.2,27.7,30.12,ENE,68,0.0,3.0,77,0.00,,,0.00,meteohub,2013-02-26 11:27:00,
2013-02-26 06:32:00,35.4,28.9,30.12,NE,34,0.0,4.0,77,0.00,,,0.00,meteohub,2013-02-26 11:32:00,
2013-02-26 06:37:00,34.7,27.7,30.12,NNE,27,1.0,4.0,75,0.00,,,0.00,meteohub,2013-02-26 11:37:00,
2013-02-26 06:42:00,34.3,27.5,30.12,NE,45,0.0,3.0,76,0.00,,,0.00,meteohub,2013-02-26 11:42:00,
2013-02-26 06:47:00,34.2,28.0,30.12,ESE,113,0.0,4.0,78,0.00,,,0.00,meteohub,2013-02-26 11:47:00,
2013-02-26 06:52:00,34.3,28.2,30.12,ENE,75,2.0,4.0,78,0.00,,,0.00,meteohub,2013-02-26 11:52:00,
2013-02-26 06:57:00,34.9,29.3,30.11,NE,52,2.0,3.0,80,0.00,,,0.00,meteohub,2013-02-26 11:57:00,
2013-02-26 07:02:00,34.9,28.0,30.11,NE,46,2.0,5.0,76,0.00,,,0.00,meteohub,2013-02-26 12:02:00,
2013-02-26 07:07:00,34.5,28.8,30.12,East,83,0.0,6.0,79,0.00,,,0.00,meteohub,2013-02-26 12:07:00,
2013-02-26 07:12:00,34.7,28.2,30.11,ESE,115,2.0,6.0,77,0.00,,,0.00,meteohub,2013-02-26 12:12:00,
2013-02-26 07:17:00,34.5,28.0,30.11,NNE,23,3.0,6.0,77,0.00,,,0.00,meteohub,2013-02-26 12:17:00,
2013-02-26 07:22:00,34.2,28.0,30.11,NE,48,1.0,3.0,78,0.00,,,0.00,meteohub,2013-02-26 12:22:00,
2013-02-26 07:27:00,34.0,28.2,30.11,North,5,0.0,5.0,79,0.00,,,0.00,meteohub,2013-02-26 12:27:00,
2013-02-26 07:32:00,34.2,28.6,30.12,NNE,21,0.0,5.0,80,0.00,,,0.00,meteohub,2013-02-26 12:32:00,
2013-02-26 07:37:00,34.3,29.1,30.12,NE,49,3.0,5.0,81,0.00,,,0.00,meteohub,2013-02-26 12:37:00,
2013-02-26 07:42:00,34.5,28.8,30.12,NE,38,2.0,5.0,79,0.00,,,0.00,meteohub,2013-02-26 12:42:00,
2013-02-26 07:47:00,34.5,29.3,30.12,NNE,23,1.0,4.0,81,0.00,,,0.00,meteohub,2013-02-26 12:47:00,
2013-02-26 07:52:00,34.5,29.3,30.12,ENE,75,0.0,4.0,81,0.00,,,0.00,meteohub,2013-02-26 12:52:00,
2013-02-26 07:57:00,34.7,29.1,30.11,ESE,114,0.0,4.0,80,0.00,,,0.00,meteohub,2013-02-26 12:57:00,
2013-02-26 08:02:00,35.1,29.8,30.11,ENE,68,0.0,3.0,81,0.00,,,0.00,meteohub,2013-02-26 13:02:00,
2013-02-26 08:07:00,35.4,30.2,30.11,NE,34,1.0,3.0,81,0.00,,,0.00,meteohub,2013-02-26 13:07:00,
2013-02-26 08:12:00,35.8,29.7,30.10,NNE,32,3.0,4.0,78,0.00,,,0.00,meteohub,2013-02-26 13:12:00,
2013-02-26 08:17:00,35.2,29.3,30.11,East,82,2.0,5.0,79,0.00,,,0.00,meteohub,2013-02-26 13:17:00,
2013-02-26 08:22:00,35.2,29.7,30.11,East,98,1.0,5.0,80,0.00,,,0.00,meteohub,2013-02-26 13:22:00,
2013-02-26 08:27:00,36.0,30.0,30.11,ENE,77,1.0,5.0,79,0.00,,,0.00,meteohub,2013-02-26 13:27:00,
2013-02-26 08:32:00,36.1,30.2,30.11,East,86,1.0,5.0,79,0.00,,,0.00,meteohub,2013-02-26 13:32:00,
2013-02-26 08:37:00,36.7,30.7,30.11,NE,43,0.0,4.0,79,0.00,,,0.00,meteohub,2013-02-26 13:37:00,
2013-02-26 08:42:00,36.5,30.0,30.11,South,177,1.0,5.0,77,0.00,,,0.00,meteohub,2013-02-26 13:42:00,
2013-02-26 08:47:00,36.7,30.2,30.11,East,84,1.0,5.0,77,0.00,,,0.00,meteohub,2013-02-26 13:47:00,
2013-02-26 08:52:00,36.9,30.4,30.11,NE,43,6.0,6.0,77,0.00,,,0.00,meteohub,2013-02-26 13:52:00,
2013-02-26 08:57:00,36.7,29.8,30.11,ENE,59,2.0,6.0,76,0.00,,,0.00,meteohub,2013-02-26 13:57:00,
2013-02-26 09:02:00,37.2,30.9,30.12,ESE,118,1.0,6.0,78,0.00,,,0.00,meteohub,2013-02-26 14:02:00,
2013-02-26 09:07:00,37.9,30.7,30.12,SE,131,1.0,6.0,75,0.00,,,0.00,meteohub,2013-02-26 14:07:00,
2013-02-26 09:12:00,38.5,30.9,30.12,SE,127,1.0,6.0,74,0.00,,,0.00,meteohub,2013-02-26 14:12:00,
2013-02-26 09:17:00,38.8,30.6,30.12,SE,128,5.0,6.0,72,0.00,,,0.00,meteohub,2013-02-26 14:17:00,
2013-02-26 09:22:00,39.0,30.4,30.12,ESE,121,0.0,7.0,71,0.00,,,0.00,meteohub,2013-02-26 14:22:00,
2013-02-26 09:27:00,39.0,30.0,30.12,ENE,59,1.0,7.0,70,0.00,,,0.00,meteohub,2013-02-26 14:27:00,
2013-02-26 09:32:00,39.4,30.4,30.12,ESE,104,3.0,7.0,70,0.00,,,0.00,meteohub,2013-02-26 14:32:00,
2013-02-26 09:37:00,39.2,30.2,30.12,SE,134,1.0,6.0,70,0.00,,,0.00,meteohub,2013-02-26 14:37:00,
2013-02-26 09:42:00,39.6,30.2,30.12,ESE,105,0.0,6.0,69,0.00,,,0.00,meteohub,2013-02-26 14:42:00,
2013-02-26 09:47:00,39.6,29.8,30.12,North,358,3.0,9.0,68,0.00,,,0.00,meteohub,2013-02-26 14:47:00,
2013-02-26 09:52:00,39.4,29.7,30.12,SE,129,3.0,9.0,68,0.00,,,0.00,meteohub,2013-02-26 14:52:00,
2013-02-26 09:57:00,39.9,29.8,30.12,ENE,67,9.0,9.0,67,0.00,,,0.00,meteohub,2013-02-26 14:57:00,
2013-02-26 10:02:00,39.7,29.7,30.11,ESE,117,5.0,9.0,67,0.00,,,0.00,meteohub,2013-02-26 15:02:00,
2013-02-26 10:07:00,39.7,30.0,30.11,NNW,341,1.0,9.0,68,0.00,,,0.00,meteohub,2013-02-26 15:07:00,
2013-02-26 10:12:00,39.9,30.2,30.11,SE,136,0.0,9.0,68,0.00,,,0.00,meteohub,2013-02-26 15:12:00,
2013-02-26 10:17:00,40.5,30.4,30.10,East,92,3.0,7.0,67,0.00,,,0.00,meteohub,2013-02-26 15:17:00,
2013-02-26 10:22:00,40.1,30.4,30.09,SE,125,4.0,7.0,68,0.00,,,0.00,meteohub,2013-02-26 15:22:00,
2013-02-26 10:27:00,39.9,30.2,30.09,ENE,73,5.0,8.0,68,0.00,,,0.00,meteohub,2013-02-26 15:27:00,
2013-02-26 10:32:00,40.1,30.4,30.09,ENE,76,1.0,8.0,68,0.00,,,0.00,meteohub,2013-02-26 15:32:00,
2013-02-26 10:37:00,40.5,30.7,30.09,NE,44,2.0,9.0,68,0.00,,,0.00,meteohub,2013-02-26 15:37:00,
2013-02-26 10:42:00,40.6,30.6,30.09,NE,35,0.0,9.0,67,0.00,,,0.00,meteohub,2013-02-26 15:42:00,
2013-02-26 10:47:00,40.8,30.7,30.09,South,183,4.0,9.0,67,0.00,,,0.00,meteohub,2013-02-26 15:47:00,
2013-02-26 10:52:00,40.6,30.6,30.08,ESE,123,6.0,11.0,67,0.00,,,0.00,meteohub,2013-02-26 15:52:00,
2013-02-26 10:57:00,40.6,30.6,30.08,NE,44,3.0,11.0,67,0.00,,,0.00,meteohub,2013-02-26 15:57:00,
2013-02-26 11:02:00,40.8,31.1,30.08,ESE,118,3.0,11.0,68,0.00,,,0.00,meteohub,2013-02-26 16:02:00,
2013-02-26 11:07:00,41.2,31.1,30.08,SSW,204,0.0,9.0,67,0.00,,,0.00,meteohub,2013-02-26 16:07:00,
2013-02-26 11:12:00,41.4,31.3,30.07,ESE,114,2.0,13.0,67,0.00,,,0.00,meteohub,2013-02-26 16:12:00,
2013-02-26 11:17:00,41.4,30.9,30.08,ENE,78,4.0,13.0,66,0.00,,,0.00,meteohub,2013-02-26 16:17:00,
2013-02-26 11:22:00,41.4,31.3,30.08,SE,124,2.0,9.0,67,0.00,,,0.00,meteohub,2013-02-26 16:22:00,
2013-02-26 11:27:00,41.5,31.1,30.07,ESE,108,5.0,7.0,66,0.00,,,0.00,meteohub,2013-02-26 16:27:00,
2013-02-26 11:32:00,41.4,31.3,30.07,ESE,117,1.0,9.0,67,0.00,,,0.00,meteohub,2013-02-26 16:32:00,
2013-02-26 11:37:00,41.4,31.6,30.07,ESE,121,7.0,9.0,68,0.00,,,0.00,meteohub,2013-02-26 16:37:00,
2013-02-26 11:42:00,41.4,32.4,30.06,ENE,57,5.0,9.0,70,0.00,,,0.00,meteohub,2013-02-26 16:42:00,
2013-02-26 11:47:00,41.2,32.2,30.06,ENE,77,3.0,8.0,70,0.00,,,0.00,meteohub,2013-02-26 16:47:00,
2013-02-26 11:52:00,41.2,32.5,30.06,SE,145,1.0,8.0,71,0.00,,,0.00,meteohub,2013-02-26 16:52:00,
2013-02-26 11:57:00,40.8,32.5,30.05,NE,43,7.0,8.0,72,0.00,,,0.00,meteohub,2013-02-26 16:57:00,
2013-02-26 12:02:00,40.6,33.1,30.05,SE,126,3.0,11.0,74,0.00,,,0.00,meteohub,2013-02-26 17:02:00,
2013-02-26 12:07:00,40.6,33.3,30.05,ENE,58,5.0,11.0,75,0.01,,,0.01,meteohub,2013-02-26 17:07:00,
2013-02-26 12:12:00,40.6,33.6,30.04,SSE,155,1.0,11.0,76,0.01,,,0.01,meteohub,2013-02-26 17:12:00,
2013-02-26 12:17:00,40.5,33.4,30.04,East,92,3.0,7.0,76,0.01,,,0.01,meteohub,2013-02-26 17:17:00,
2013-02-26 12:22:00,40.3,33.6,30.04,East,82,3.0,7.0,77,0.01,,,0.01,meteohub,2013-02-26 17:22:00,
2013-02-26 12:27:00,39.9,33.6,30.04,North,3,1.0,9.0,78,0.02,,,0.02,meteohub,2013-02-26 17:27:00,
2013-02-26 12:32:00,40.1,34.2,30.04,ENE,76,4.0,9.0,79,0.02,,,0.02,meteohub,2013-02-26 17:32:00,
2013-02-26 12:37:00,39.9,34.3,30.04,East,91,2.0,9.0,80,0.02,,,0.02,meteohub,2013-02-26 17:37:00,
2013-02-26 12:42:00,39.7,34.2,30.04,East,95,1.0,9.0,80,0.02,,,0.02,meteohub,2013-02-26 17:42:00,
2013-02-26 12:47:00,39.9,34.5,30.03,East,96,5.0,9.0,81,0.03,,,0.03,meteohub,2013-02-26 17:47:00,
2013-02-26 12:52:00,39.9,34.9,30.03,SE,143,2.0,8.0,82,0.03,,,0.03,meteohub,2013-02-26 17:52:00,
2013-02-26 12:57:00,39.9,34.9,30.03,NNE,12,6.0,8.0,82,0.03,,,0.03,meteohub,2013-02-26 17:57:00,
2013-02-26 13:02:00,39.9,35.2,30.02,ENE,63,6.0,8.0,83,0.03,,,0.03,meteohub,2013-02-26 18:02:00,
2013-02-26 13:07:00,39.9,35.2,30.01,SE,134,1.0,7.0,83,0.02,,,0.03,meteohub,2013-02-26 18:07:00,
2013-02-26 13:12:00,39.9,35.4,30.00,NNE,16,3.0,7.0,84,0.03,,,0.04,meteohub,2013-02-26 18:12:00,
2013-02-26 13:17:00,39.9,35.4,30.00,NNE,12,6.0,7.0,84,0.03,,,0.04,meteohub,2013-02-26 18:17:00,
2013-02-26 13:22:00,39.9,35.8,29.99,NNE,33,3.0,10.0,85,0.03,,,0.04,meteohub,2013-02-26 18:22:00,
2013-02-26 13:26:00,39.9,35.8,29.99,NE,40,4.0,10.0,85,0.03,,,0.05,meteohub,2013-02-26 18:26:00,
2013-02-26 13:31:00,39.9,36.1,29.98,East,95,2.0,10.0,86,0.03,,,0.05,meteohub,2013-02-26 18:31:00,
2013-02-26 13:37:00,40.3,36.7,29.98,NNE,17,0.0,8.0,87,0.03,,,0.05,meteohub,2013-02-26 18:37:00,
2013-02-26 13:42:00,40.3,36.5,29.98,NNE,20,4.0,9.0,86,0.03,,,0.05,meteohub,2013-02-26 18:42:00,
2013-02-26 13:47:00,40.3,36.5,29.97,ENE,58,3.0,11.0,86,0.03,,,0.06,meteohub,2013-02-26 18:47:00,
2013-02-26 13:52:00,40.3,36.7,29.97,SE,125,2.0,11.0,87,0.03,,,0.06,meteohub,2013-02-26 18:52:00,
2013-02-26 13:57:00,40.5,36.9,29.97,NE,56,9.0,11.0,87,0.03,,,0.06,meteohub,2013-02-26 18:57:00,
2013-02-26 14:02:00,40.5,37.2,29.97,NNE,27,3.0,9.0,88,0.04,,,0.07,meteohub,2013-02-26 19:02:00,
2013-02-26 14:07:00,40.6,37.0,29.97,NNE,23,2.0,9.0,87,0.03,,,0.07,meteohub,2013-02-26 19:07:00,
2013-02-26 14:11:00,40.6,37.4,29.96,NE,53,7.0,9.0,88,0.03,,,0.07,meteohub,2013-02-26 19:11:00,
2013-02-26 14:17:00,40.6,37.4,29.95,ESE,103,4.0,8.0,88,0.04,,,0.08,meteohub,2013-02-26 19:17:00,
2013-02-26 14:21:00,40.8,37.6,29.94,ESE,111,3.0,10.0,88,0.05,,,0.09,meteohub,2013-02-26 19:21:00,
2013-02-26 14:27:00,40.8,37.8,29.94,East,90,5.0,10.0,89,0.04,,,0.09,meteohub,2013-02-26 19:27:00,
2013-02-26 14:31:00,40.8,37.8,29.94,NE,56,2.0,10.0,89,0.04,,,0.09,meteohub,2013-02-26 19:31:00,
2013-02-26 14:37:00,40.8,37.8,29.94,NE,49,3.0,10.0,89,0.04,,,0.09,meteohub,2013-02-26 19:37:00,
2013-02-26 14:42:00,40.8,37.8,29.93,NE,46,6.0,14.0,89,0.05,,,0.10,meteohub,2013-02-26 19:42:00,
2013-02-26 14:47:00,41.2,38.5,29.92,North,357,8.0,14.0,90,0.04,,,0.10,meteohub,2013-02-26 19:47:00,
2013-02-26 14:52:00,41.2,38.5,29.92,NE,34,1.0,14.0,90,0.04,,,0.10,meteohub,2013-02-26 19:52:00,
2013-02-26 14:57:00,41.2,38.5,29.91,ESE,110,3.0,12.0,90,0.05,,,0.11,meteohub,2013-02-26 19:57:00,
2013-02-26 15:02:00,41.4,38.7,29.91,ENE,57,3.0,12.0,90,0.04,,,0.11,meteohub,2013-02-26 20:02:00,
2013-02-26 15:07:00,41.4,38.7,29.91,NNE,26,2.0,12.0,90,0.04,,,0.11,meteohub,2013-02-26 20:07:00,
2013-02-26 15:12:00,41.5,38.8,29.90,ENE,71,5.0,10.0,90,0.05,,,0.12,meteohub,2013-02-26 20:12:00,
2013-02-26 15:22:00,41.7,39.0,29.89,ENE,73,2.0,11.0,90,0.04,,,0.12,meteohub,2013-02-26 20:22:00,
2013-02-26 15:27:00,41.7,39.0,29.89,East,97,5.0,11.0,90,0.04,,,0.13,meteohub,2013-02-26 20:27:00,
2013-02-26 15:32:00,41.7,39.0,29.87,NE,41,5.0,11.0,90,0.04,,,0.13,meteohub,2013-02-26 20:32:00,
2013-02-26 15:37:00,41.9,39.2,29.87,NE,54,5.0,12.0,90,0.04,,,0.14,meteohub,2013-02-26 20:37:00,
2013-02-26 15:42:00,41.9,39.2,29.86,ENE,60,6.0,15.0,90,0.04,,,0.14,meteohub,2013-02-26 20:42:00,
2013-02-26 15:47:00,42.1,39.4,29.86,SSE,155,1.0,15.0,90,0.05,,,0.15,meteohub,2013-02-26 20:47:00,
2013-02-26 15:52:00,42.3,39.6,29.85,ENE,75,2.0,15.0,90,0.04,,,0.15,meteohub,2013-02-26 20:52:00,
2013-02-26 15:57:00,42.3,39.6,29.85,SE,144,1.0,17.0,90,0.04,,,0.15,meteohub,2013-02-26 20:57:00,
2013-02-26 16:02:00,42.3,39.6,29.85,NE,47,5.0,17.0,90,0.05,,,0.16,meteohub,2013-02-26 21:02:00,
2013-02-26 16:07:00,42.3,39.6,29.84,East,101,5.0,17.0,90,0.05,,,0.16,meteohub,2013-02-26 21:07:00,
2013-02-26 16:12:00,42.4,39.7,29.83,ENE,77,4.0,11.0,90,0.04,,,0.16,meteohub,2013-02-26 21:12:00,
2013-02-26 16:17:00,42.6,39.9,29.83,NNE,32,4.0,11.0,90,0.05,,,0.17,meteohub,2013-02-26 21:17:00,
2013-02-26 16:22:00,42.6,39.6,29.83,ESE,110,5.0,11.0,89,0.04,,,0.17,meteohub,2013-02-26 21:22:00,
2013-02-26 16:27:00,42.8,39.7,29.82,ENE,58,9.0,12.0,89,0.04,,,0.17,meteohub,2013-02-26 21:27:00,
2013-02-26 16:32:00,43.0,39.9,29.81,North,352,2.0,12.0,89,0.03,,,0.17,meteohub,2013-02-26 21:32:00,
2013-02-26 16:37:00,43.2,39.9,29.81,NE,39,8.0,12.0,88,0.03,,,0.17,meteohub,2013-02-26 21:37:00,
2013-02-26 16:42:00,43.2,39.9,29.80,NE,48,2.0,16.0,88,0.03,,,0.17,meteohub,2013-02-26 21:42:00,
2013-02-26 16:47:00,43.2,39.9,29.79,NNE,17,2.0,16.0,88,0.02,,,0.17,meteohub,2013-02-26 21:47:00,
2013-02-26 16:52:00,43.3,40.1,29.78,East,101,12.0,13.0,88,0.02,,,0.17,meteohub,2013-02-26 21:52:00,
2013-02-26 16:57:00,43.3,40.1,29.77,East,90,10.0,15.0,88,0.03,,,0.18,meteohub,2013-02-26 21:57:00,
2013-02-26 17:02:00,43.3,40.1,29.76,East,85,6.0,16.0,88,0.02,,,0.18,meteohub,2013-02-26 22:02:00,
2013-02-26 17:07:00,43.3,40.1,29.76,NE,34,2.0,16.0,88,0.02,,,0.18,meteohub,2013-02-26 22:07:00,
2013-02-26 17:12:00,43.3,39.7,29.75,SE,133,3.0,16.0,87,0.02,,,0.18,meteohub,2013-02-26 22:12:00,
2013-02-26 17:17:00,43.5,39.9,29.76,ENE,72,4.0,18.0,87,0.01,,,0.18,meteohub,2013-02-26 22:17:00,
2013-02-26 17:22:00,43.5,39.9,29.76,NE,53,8.0,21.0,87,0.01,,,0.18,meteohub,2013-02-26 22:22:00,
2013-02-26 17:27:00,43.7,39.7,29.76,SE,141,14.0,21.0,86,0.01,,,0.18,meteohub,2013-02-26 22:27:00,
2013-02-26 17:32:00,43.7,39.7,29.75,North,356,11.0,21.0,86,0.01,,,0.18,meteohub,2013-02-26 22:32:00,
2013-02-26 17:37:00,43.9,39.9,29.75,North,3,11.0,17.0,86,0.01,,,0.18,meteohub,2013-02-26 22:37:00,
2013-02-26 17:42:00,43.9,39.9,29.74,NE,42,8.0,16.0,86,0.01,,,0.18,meteohub,2013-02-26 22:42:00,
2013-02-26 17:47:00,43.9,39.9,29.73,SSW,194,6.0,20.0,86,0.01,,,0.18,meteohub,2013-02-26 22:47:00,
2013-02-26 17:52:00,43.7,39.7,29.73,ENE,63,10.0,20.0,86,0.01,,,0.18,meteohub,2013-02-26 22:52:00,
2013-02-26 17:57:00,43.7,39.7,29.73,ESE,121,6.0,21.0,86,0.01,,,0.19,meteohub,2013-02-26 22:57:00,
2013-02-26 18:02:00,43.7,39.7,29.73,NNE,32,5.0,21.0,86,0.01,,,0.19,meteohub,2013-02-26 23:02:00,
2013-02-26 18:07:00,43.7,39.7,29.72,East,82,4.0,23.0,86,0.01,,,0.19,meteohub,2013-02-26 23:07:00,
2013-02-26 18:12:00,43.5,39.9,29.71,ENE,64,7.0,23.0,87,0.01,,,0.19,meteohub,2013-02-26 23:12:00,
2013-02-26 18:17:00,43.5,39.9,29.70,West,264,5.0,23.0,87,0.01,,,0.19,meteohub,2013-02-26 23:17:00,
2013-02-26 18:22:00,43.3,40.1,29.70,WNW,291,2.0,21.0,88,0.03,,,0.20,meteohub,2013-02-26 23:22:00,
2013-02-26 18:27:00,43.3,40.3,29.71,NNE,17,10.0,21.0,89,0.04,,,0.22,meteohub,2013-02-26 23:27:00,
2013-02-26 18:32:00,43.2,40.1,29.70,ESE,117,2.0,18.0,89,0.05,,,0.23,meteohub,2013-02-26 23:32:00,
2013-02-26 18:37:00,43.2,40.1,29.70,NNE,32,8.0,16.0,89,0.05,,,0.23,meteohub,2013-02-26 23:37:00,
2013-02-26 18:42:00,43.2,40.5,29.69,NNE,25,8.0,16.0,90,0.06,,,0.24,meteohub,2013-02-26 23:42:00,
2013-02-26 18:47:00,43.2,40.5,29.69,East,90,4.0,20.0,90,0.06,,,0.24,meteohub,2013-02-26 23:47:00,
2013-02-26 18:52:00,43.0,40.3,29.68,ESE,104,5.0,20.0,90,0.05,,,0.24,meteohub,2013-02-26 23:52:00,
2013-02-26 18:57:00,43.0,40.3,29.68,ENE,66,7.0,20.0,90,0.05,,,0.24,meteohub,2013-02-26 23:57:00,
2013-02-26 19:02:00,43.0,40.5,29.67,East,101,5.0,16.0,91,0.06,,,0.25,meteohub,2013-02-27 00:02:00,
2013-02-26 19:07:00,43.2,40.6,29.67,NNE,13,6.0,16.0,91,0.06,,,0.25,meteohub,2013-02-27 00:07:00,
2013-02-26 19:12:00,43.2,40.6,29.67,ENE,65,8.0,16.0,91,0.06,,,0.25,meteohub,2013-02-27 00:12:00,
2013-02-26 19:17:00,43.3,40.8,29.67,ESE,116,4.0,15.0,91,0.05,,,0.25,meteohub,2013-02-27 00:17:00,
2013-02-26 19:22:00,43.3,40.8,29.67,ENE,75,2.0,15.0,91,0.04,,,0.25,meteohub,2013-02-27 00:22:00,
2013-02-26 19:27:00,43.5,41.0,29.67,East,100,5.0,14.0,91,0.04,,,0.26,meteohub,2013-02-27 00:27:00,
2013-02-26 19:32:00,43.7,41.5,29.66,ENE,70,8.0,14.0,92,0.04,,,0.26,meteohub,2013-02-27 00:32:00,
2013-02-26 19:37:00,43.7,41.5,29.66,SE,142,3.0,14.0,92,0.04,,,0.27,meteohub,2013-02-27 00:37:00,
2013-02-26 19:42:00,43.9,41.7,29.65,East,98,7.0,14.0,92,0.04,,,0.28,meteohub,2013-02-27 00:42:00,
2013-02-26 19:47:00,44.1,41.9,29.66,SE,136,5.0,14.0,92,0.04,,,0.28,meteohub,2013-02-27 00:47:00,
2013-02-26 19:52:00,44.1,41.9,29.65,East,94,12.0,18.0,92,0.04,,,0.28,meteohub,2013-02-27 00:52:00,
2013-02-26 19:57:00,44.1,41.9,29.64,ESE,103,8.0,18.0,92,0.04,,,0.29,meteohub,2013-02-27 00:57:00,
2013-02-26 20:02:00,44.2,42.1,29.63,SSE,148,3.0,18.0,92,0.05,,,0.30,meteohub,2013-02-27 01:02:00,
2013-02-26 20:07:00,44.4,42.3,29.63,East,86,8.0,13.0,92,0.06,,,0.31,meteohub,2013-02-27 01:07:00,
2013-02-26 20:12:00,44.4,42.3,29.63,ESE,108,4.0,21.0,92,0.06,,,0.31,meteohub,2013-02-27 01:12:00,
2013-02-26 20:17:00,44.4,42.3,29.63,East,87,1.0,21.0,92,0.06,,,0.31,meteohub,2013-02-27 01:17:00,
2013-02-26 20:22:00,44.6,42.4,29.63,SSW,196,4.0,21.0,92,0.06,,,0.32,meteohub,2013-02-27 01:22:00,
2013-02-26 20:27:00,44.8,42.6,29.62,ENE,72,6.0,11.0,92,0.07,,,0.33,meteohub,2013-02-27 01:27:00,
2013-02-26 20:32:00,44.8,42.6,29.62,East,100,1.0,11.0,92,0.06,,,0.33,meteohub,2013-02-27 01:32:00,
2013-02-26 20:37:00,44.8,42.6,29.62,WNW,295,6.0,16.0,92,0.07,,,0.34,meteohub,2013-02-27 01:37:00,
2013-02-26 20:42:00,45.0,42.8,29.62,ENE,60,10.0,16.0,92,0.07,,,0.34,meteohub,2013-02-27 01:42:00,
2013-02-26 20:47:00,45.0,42.8,29.62,NE,51,11.0,14.0,92,0.07,,,0.35,meteohub,2013-02-27 01:47:00,
2013-02-26 20:52:00,45.0,42.8,29.63,North,351,2.0,12.0,92,0.07,,,0.36,meteohub,2013-02-27 01:52:00,
2013-02-26 20:57:00,45.0,42.8,29.64,ESE,103,5.0,12.0,92,0.08,,,0.36,meteohub,2013-02-27 01:57:00,
2013-02-26 21:02:00,45.1,43.0,29.64,NW,316,2.0,12.0,92,0.06,,,0.37,meteohub,2013-02-27 02:02:00,
2013-02-26 21:07:00,45.1,43.0,29.66,NE,41,5.0,12.0,92,0.06,,,0.37,meteohub,2013-02-27 02:07:00,
2013-02-26 21:12:00,45.3,43.2,29.66,WNW,283,2.0,12.0,92,0.08,,,0.38,meteohub,2013-02-27 02:12:00,
2013-02-26 21:18:00,45.3,43.2,29.65,ENE,61,3.0,12.0,92,0.09,,,0.40,meteohub,2013-02-27 02:18:00,
2013-02-26 21:23:00,45.3,43.2,29.65,NNE,13,4.0,6.0,92,0.10,,,0.42,meteohub,2013-02-27 02:23:00,
2013-02-26 21:28:00,45.3,43.2,29.64,SE,124,7.0,9.0,92,0.11,,,0.44,meteohub,2013-02-27 02:28:00,
2013-02-26 21:33:00,45.1,43.0,29.64,ESE,104,6.0,9.0,92,0.13,,,0.47,meteohub,2013-02-27 02:33:00,
2013-02-26 21:38:00,45.1,43.0,29.62,ESE,109,1.0,9.0,92,0.15,,,0.49,meteohub,2013-02-27 02:38:00,
2013-02-26 21:43:00,45.1,43.2,29.63,East,79,0.0,8.0,93,0.15,,,0.50,meteohub,2013-02-27 02:43:00,
2013-02-26 21:48:00,45.1,43.0,29.63,NE,53,3.0,8.0,92,0.16,,,0.51,meteohub,2013-02-27 02:48:00,
2013-02-26 21:53:00,45.1,43.2,29.62,NE,56,4.0,6.0,93,0.16,,,0.52,meteohub,2013-02-27 02:53:00,
2013-02-26 21:58:00,45.0,43.0,29.62,NNE,25,3.0,7.0,93,0.16,,,0.53,meteohub,2013-02-27 02:58:00,
2013-02-26 22:03:00,45.0,43.0,29.62,North,359,8.0,11.0,93,0.17,,,0.54,meteohub,2013-02-27 03:03:00,
2013-02-26 22:08:00,45.0,43.0,29.61,NNE,27,2.0,11.0,93,0.16,,,0.54,meteohub,2013-02-27 03:08:00,
2013-02-26 22:14:00,45.0,43.0,29.60,NNE,27,2.0,11.0,93,0.16,,,0.55,meteohub,2013-02-27 03:14:00,
2013-02-26 22:19:00,44.8,42.8,29.58,NNE,33,5.0,10.0,93,0.15,,,0.56,meteohub,2013-02-27 03:19:00,
2013-02-26 22:24:00,44.4,42.4,29.58,NNE,32,7.0,11.0,93,0.13,,,0.56,meteohub,2013-02-27 03:24:00,
2013-02-26 22:29:00,44.4,42.4,29.57,NE,56,7.0,11.0,93,0.11,,,0.57,meteohub,2013-02-27 03:29:00,
2013-02-26 22:34:00,44.2,42.3,29.57,NE,41,11.0,11.0,93,0.09,,,0.57,meteohub,2013-02-27 03:34:00,
2013-02-26 22:39:00,44.4,42.4,29.57,NE,51,5.0,12.0,93,0.08,,,0.57,meteohub,2013-02-27 03:39:00,
2013-02-26 22:44:00,44.4,42.8,29.57,NNE,23,6.0,12.0,94,0.07,,,0.57,meteohub,2013-02-27 03:44:00,
2013-02-26 22:49:00,44.4,42.8,29.57,East,79,3.0,12.0,94,0.06,,,0.57,meteohub,2013-02-27 03:49:00,
2013-02-26 22:54:00,44.4,42.8,29.56,NE,47,4.0,12.0,94,0.05,,,0.57,meteohub,2013-02-27 03:54:00,
2013-02-26 22:59:00,44.6,43.0,29.56,NE,56,6.0,12.0,94,0.04,,,0.57,meteohub,2013-02-27 03:59:00,
2013-02-26 23:04:00,44.8,43.2,29.56,ENE,65,4.0,12.0,94,0.03,,,0.57,meteohub,2013-02-27 04:04:00,
2013-02-26 23:09:00,44.8,43.2,29.56,NNE,30,2.0,12.0,94,0.02,,,0.57,meteohub,2013-02-27 04:09:00,
2013-02-26 23:14:00,44.8,43.2,29.55,NE,40,4.0,12.0,94,0.02,,,0.57,meteohub,2013-02-27 04:14:00,
2013-02-26 23:19:00,45.0,43.3,29.55,NNE,30,7.0,8.0,94,0.01,,,0.57,meteohub,2013-02-27 04:19:00,
2013-02-26 23:24:00,45.0,43.3,29.55,NNE,32,4.0,9.0,94,0.01,,,0.57,meteohub,2013-02-27 04:24:00,
2013-02-26 23:29:00,45.1,43.5,29.54,NNE,32,6.0,10.0,94,0.00,,,0.57,meteohub,2013-02-27 04:29:00,
2013-02-26 23:34:00,45.1,43.5,29.54,ENE,59,4.0,10.0,94,0.00,,,0.57,meteohub,2013-02-27 04:34:00,
2013-02-26 23:39:00,45.3,43.7,29.54,NE,52,5.0,10.0,94,0.01,,,0.58,meteohub,2013-02-27 04:39:00,
2013-02-26 23:44:00,45.3,43.7,29.54,NE,56,3.0,10.0,94,0.01,,,0.58,meteohub,2013-02-27 04:44:00,
2013-02-26 23:49:00,45.7,44.1,29.54,East,93,4.0,10.0,94,0.01,,,0.58,meteohub,2013-02-27 04:49:00,
2013-02-26 23:54:00,45.7,44.1,29.54,East,88,6.0,9.0,94,0.01,,,0.58,meteohub,2013-02-27 04:54:00,
2013-02-26 23:59:00,45.7,44.1,29.53,NE,56,5.0,9.0,94,0.01,,,0.58,meteohub,2013-02-27 04:59:00,